Terminal Aerodrome Forecast
Issued by NWS

Home | Current Version | Previous Version | Text Only | Print | Product List | Glossary On
Versions: 1 2 3 4 5 6 7 8 9 10 11 12 13 14 15 16 17 18 19 20 21 22 23 24 25 26 27
000
FTUS46 KPDT 100522
TAFBDN
TAF
KBDN 100522Z 1006/1106 21011KT P6SM -SHRA SCT020 OVC040
     FM101000 22012KT 5SM -SHRASN BR SCT020 OVC040
     FM101800 23010KT P6SM BKN040=

USA.gov is the U.S. government's official web portal to all federal, state and local government web resources and services.